createdAt,value
2019-03-29T00:00:27.495Z,11.43
2019-03-29T00:02:58.929Z,10.87
2019-03-29T00:05:29.633Z,16.40
2019-03-29T00:08:00.436Z,12.57
2019-03-29T00:10:31.746Z,14.47
2019-03-29T00:13:02.480Z,9.13
2019-03-29T00:15:33.992Z,12.93
2019-03-29T00:18:04.839Z,15.00
2019-03-29T00:20:35.618Z,13.67
2019-03-29T00:23:06.425Z,12.40
2019-03-29T00:25:37.178Z,12.67
2019-03-29T00:28:07.912Z,13.20
2019-03-29T00:30:38.869Z,13.30
2019-03-29T00:33:09.662Z,12.60
2019-03-29T00:35:40.408Z,12.17
2019-03-29T00:38:11.240Z,11.53
2019-03-29T00:40:42.290Z,12.17
2019-03-29T00:43:13.047Z,14.53
2019-03-29T00:45:43.844Z,11.63
2019-03-29T00:48:14.774Z,18.03
2019-03-29T00:50:46.477Z,16.50
2019-03-29T00:53:17.300Z,14.33
2019-03-29T00:55:48.079Z,16.00
2019-03-29T00:58:19.221Z,12.80
2019-03-29T01:00:50.039Z,12.17
2019-03-29T01:03:20.758Z,14.47
2019-03-29T01:05:51.484Z,11.50
2019-03-29T01:08:22.352Z,14.33
2019-03-29T01:10:53.348Z,10.00
2019-03-29T01:13:24.222Z,13.60
2019-03-29T01:15:55.616Z,14.63
2019-03-29T01:18:26.531Z,13.57
2019-03-29T01:20:57.534Z,13.43
2019-03-29T01:23:28.264Z,14.20
2019-03-29T01:25:59.067Z,13.13
2019-03-29T01:28:29.808Z,14.43
2019-03-29T01:31:01.403Z,11.83
2019-03-29T01:33:32.218Z,13.93
2019-03-29T01:36:02.930Z,15.43
2019-03-29T01:38:33.667Z,13.87
2019-03-29T01:41:04.380Z,16.27
2019-03-29T01:43:35.292Z,14.40
2019-03-29T01:46:06.900Z,16.67
2019-03-29T01:48:37.659Z,16.00
2019-03-29T01:51:08.362Z,14.80
2019-03-29T01:53:39.102Z,18.13
2019-03-29T01:56:10.885Z,14.87
2019-03-29T01:58:41.601Z,15.77
2019-03-29T02:01:12.475Z,15.33
2019-03-29T02:03:43.348Z,15.20
2019-03-29T02:06:14.120Z,17.17
2019-03-29T02:08:44.872Z,15.67
2019-03-29T02:11:15.765Z,22.37
2019-03-29T02:13:46.498Z,18.13
2019-03-29T02:16:17.380Z,14.53
2019-03-29T02:18:48.140Z,15.83
2019-03-29T02:21:19.215Z,14.43
2019-03-29T02:23:49.958Z,15.50
2019-03-29T02:26:20.759Z,19.70
2019-03-29T02:28:53.914Z,18.60
2019-03-29T02:31:26.015Z,16.03
2019-03-29T02:33:57.273Z,16.93
2019-03-29T02:36:27.975Z,16.23
2019-03-29T02:38:59.453Z,19.30
2019-03-29T02:41:30.148Z,15.83
2019-03-29T02:44:00.982Z,18.83
2019-03-29T02:46:31.703Z,17.17
2019-03-29T02:49:02.563Z,20.33
2019-03-29T02:51:33.270Z,21.70
2019-03-29T02:54:04.272Z,20.13
2019-03-29T02:56:35.018Z,25.07
2019-03-29T02:59:06.127Z,18.10
2019-03-29T03:01:38.621Z,23.33
2019-03-29T03:04:09.896Z,23.47
2019-03-29T03:06:40.649Z,23.80
2019-03-29T03:09:14.076Z,19.97
2019-03-29T03:11:44.254Z,20.10
2019-03-29T03:14:15.900Z,22.00
2019-03-29T03:16:47.393Z,17.97
2019-03-29T03:19:18.253Z,20.27
2019-03-29T03:21:49.004Z,21.90
2019-03-29T03:24:20.379Z,23.13
2019-03-29T03:26:51.088Z,20.10
2019-03-29T03:29:21.846Z,20.57
2019-03-29T03:31:52.587Z,26.93
2019-03-29T03:34:23.420Z,25.87
2019-03-29T03:36:54.158Z,23.57
2019-03-29T03:39:32.070Z,27.40
2019-03-29T03:41:57.663Z,25.07
2019-03-29T03:44:28.422Z,27.83
2019-03-29T03:46:59.191Z,24.23
2019-03-29T03:49:30.082Z,28.80
2019-03-29T03:52:00.901Z,23.17
2019-03-29T03:54:31.868Z,27.17
2019-03-29T03:57:03.009Z,28.37
2019-03-29T03:59:33.973Z,27.70
2019-03-29T04:02:04.831Z,28.23
2019-03-29T04:04:37.642Z,29.83
2019-03-29T04:07:08.124Z,25.73
2019-03-29T04:09:49.244Z,30.67
2019-03-29T04:12:11.395Z,26.57
2019-03-29T04:14:42.157Z,31.77
2019-03-29T04:17:12.886Z,30.73
2019-03-29T04:19:44.185Z,29.07
2019-03-29T04:22:14.995Z,29.97
2019-03-29T04:24:45.908Z,26.83
2019-03-29T04:27:16.794Z,29.80
2019-03-29T04:29:47.552Z,28.83
2019-03-29T04:32:18.292Z,31.13
2019-03-29T04:34:49.036Z,29.67
2019-03-29T04:37:20.205Z,32.20
2019-03-29T04:40:06.350Z,40.33
2019-03-29T04:42:23.584Z,31.03
2019-03-29T04:44:54.344Z,33.80
2019-03-29T04:47:25.130Z,35.10
2019-03-29T04:49:56.403Z,34.70
2019-03-29T04:52:27.241Z,36.97
2019-03-29T04:54:57.959Z,35.00
2019-03-29T04:57:28.731Z,31.87
2019-03-29T04:59:59.586Z,29.10
2019-03-29T05:02:30.900Z,36.10
2019-03-29T05:05:01.856Z,36.23
2019-03-29T05:07:32.621Z,28.93
2019-03-29T05:10:03.353Z,33.80
2019-03-29T05:12:34.215Z,35.37
2019-03-29T05:15:05.128Z,34.60
2019-03-29T05:17:35.913Z,31.47
2019-03-29T05:20:07.288Z,34.60
2019-03-29T05:22:38.065Z,30.67
2019-03-29T05:25:08.948Z,31.53
2019-03-29T05:27:39.748Z,30.23
2019-03-29T05:30:10.776Z,34.30
2019-03-29T05:32:42.469Z,33.90
2019-03-29T05:35:13.383Z,36.13
2019-03-29T05:37:44.142Z,33.43
2019-03-29T05:40:15.355Z,35.70
2019-03-29T05:42:46.123Z,30.40
2019-03-29T05:45:17.761Z,37.90
2019-03-29T05:47:48.509Z,34.03
2019-03-29T05:50:19.376Z,37.13
2019-03-29T05:52:50.639Z,34.90
2019-03-29T05:55:32.068Z,34.73
2019-03-29T05:57:54.148Z,35.77
2019-03-29T06:00:25.061Z,29.53
2019-03-29T06:02:55.859Z,27.30
2019-03-29T06:05:26.611Z,28.50
2019-03-29T06:07:57.404Z,28.43
2019-03-29T06:10:28.301Z,31.77
2019-03-29T06:12:59.083Z,27.77
2019-03-29T06:15:29.885Z,23.50
2019-03-29T06:18:00.671Z,24.40
2019-03-29T06:20:31.610Z,29.37
2019-03-29T06:23:03.070Z,22.40
2019-03-29T06:25:33.950Z,23.90
2019-03-29T06:28:04.840Z,25.27
2019-03-29T06:30:35.740Z,25.60
2019-03-29T06:33:06.567Z,23.77
2019-03-29T06:35:40.397Z,22.93
2019-03-29T06:38:12.303Z,20.77
2019-03-29T06:40:43.318Z,20.20
2019-03-29T06:43:14.489Z,21.37
2019-03-29T06:45:48.122Z,17.23
2019-03-29T06:48:17.999Z,22.67
2019-03-29T06:50:49.010Z,22.60
2019-03-29T06:53:19.839Z,20.87
2019-03-29T06:55:50.642Z,23.57
2019-03-29T06:58:21.362Z,22.80
2019-03-29T07:00:52.345Z,33.90
2019-03-29T07:03:23.098Z,21.03
2019-03-29T07:05:53.943Z,20.23
2019-03-29T07:08:24.650Z,20.27
2019-03-29T07:10:55.390Z,21.17
2019-03-29T07:13:26.118Z,17.93
2019-03-29T07:15:57.144Z,21.43
2019-03-29T07:18:27.863Z,15.10
2019-03-29T07:20:58.638Z,20.87
2019-03-29T07:23:29.490Z,21.57
2019-03-29T07:26:00.239Z,18.50
2019-03-29T07:28:30.994Z,18.03
2019-03-29T07:31:01.762Z,21.93
2019-03-29T07:33:32.496Z,22.20
2019-03-29T07:36:03.276Z,18.27
2019-03-29T07:38:34.002Z,20.90
2019-03-29T07:41:04.729Z,20.20
2019-03-29T07:43:35.480Z,21.40
2019-03-29T07:46:06.195Z,24.33
2019-03-29T07:48:40.330Z,21.30
2019-03-29T07:51:09.843Z,19.70
2019-03-29T07:53:40.641Z,21.97
2019-03-29T07:56:11.387Z,26.23
2019-03-29T07:58:42.125Z,21.07
2019-03-29T08:01:13.035Z,22.83
2019-03-29T08:03:43.782Z,19.27
2019-03-29T08:06:14.522Z,23.43
2019-03-29T08:08:45.251Z,24.33
2019-03-29T08:11:26.087Z,18.87
2019-03-29T08:13:48.446Z,20.70
2019-03-29T08:16:19.363Z,21.80
2019-03-29T08:18:50.137Z,23.43
2019-03-29T08:21:20.939Z,22.00
2019-03-29T08:23:51.668Z,20.43
2019-03-29T08:26:22.460Z,21.70
2019-03-29T08:28:53.173Z,20.73
2019-03-29T08:31:23.912Z,18.77
2019-03-29T08:33:54.653Z,16.43
2019-03-29T08:36:25.506Z,17.60
2019-03-29T08:38:56.445Z,17.40
2019-03-29T08:41:27.298Z,20.73
2019-03-29T08:43:58.275Z,20.03
2019-03-29T08:46:29.043Z,26.43
2019-03-29T08:48:59.765Z,20.70
2019-03-29T08:51:31.252Z,21.60
2019-03-29T08:54:02.115Z,26.13
2019-03-29T08:56:32.931Z,19.40
2019-03-29T08:59:03.997Z,24.57
2019-03-29T09:01:35.008Z,19.77
2019-03-29T09:04:06.265Z,19.20
2019-03-29T09:06:37.111Z,15.30
2019-03-29T09:09:11.888Z,15.43
2019-03-29T09:11:41.671Z,15.20
2019-03-29T09:14:12.390Z,17.70
2019-03-29T09:16:43.141Z,16.03
2019-03-29T09:19:14.136Z,13.73
2019-03-29T09:21:44.882Z,13.40
2019-03-29T09:24:21.823Z,15.00
2019-03-29T09:26:48.104Z,14.73
2019-03-29T09:29:18.970Z,14.70
2019-03-29T09:31:49.840Z,18.73
2019-03-29T09:34:20.609Z,14.27
2019-03-29T09:36:51.368Z,16.23
2019-03-29T09:39:22.095Z,11.10
2019-03-29T09:41:52.917Z,11.97
2019-03-29T09:44:23.618Z,11.73
2019-03-29T09:46:54.896Z,14.07
2019-03-29T09:49:25.698Z,12.33
2019-03-29T09:51:56.455Z,13.77
2019-03-29T09:54:27.175Z,12.47
2019-03-29T09:56:57.934Z,12.50
2019-03-29T09:59:28.676Z,13.20
2019-03-29T10:01:59.484Z,13.30
2019-03-29T10:04:30.261Z,13.20
2019-03-29T10:07:01.103Z,15.93
2019-03-29T10:09:31.858Z,14.07
2019-03-29T10:12:02.766Z,10.40
2019-03-29T10:14:33.774Z,10.90
2019-03-29T10:17:04.581Z,10.60
2019-03-29T10:19:35.301Z,9.17
2019-03-29T10:22:06.259Z,9.23
2019-03-29T10:24:36.967Z,13.20
2019-03-29T10:27:07.792Z,9.30
2019-03-29T10:29:38.507Z,10.90
2019-03-29T10:32:10.098Z,10.37
2019-03-29T10:34:40.799Z,8.30
2019-03-29T10:37:11.666Z,10.37
2019-03-29T10:39:42.416Z,8.50
2019-03-29T10:42:13.436Z,6.80
2019-03-29T10:44:44.228Z,6.87
2019-03-29T10:47:15.144Z,8.43
2019-03-29T10:49:45.982Z,6.03
2019-03-29T10:52:16.817Z,8.23
2019-03-29T10:54:49.885Z,6.53
2019-03-29T10:57:20.036Z,7.60
2019-03-29T10:59:50.756Z,6.80
2019-03-29T11:02:21.492Z,7.40
2019-03-29T11:04:52.223Z,9.70
2019-03-29T11:07:23.287Z,8.70
2019-03-29T11:09:54.026Z,6.63
2019-03-29T11:12:24.830Z,8.93
2019-03-29T11:14:55.588Z,11.13
2019-03-29T11:17:26.452Z,8.20
2019-03-29T11:19:57.176Z,9.10
2019-03-29T11:22:27.989Z,9.13
2019-03-29T11:24:58.764Z,9.93
2019-03-29T11:27:29.684Z,9.67
2019-03-29T11:30:00.429Z,8.80
2019-03-29T11:32:31.259Z,8.40
2019-03-29T11:35:01.996Z,8.33
2019-03-29T11:37:32.778Z,9.13
2019-03-29T11:40:03.507Z,9.00
2019-03-29T11:42:34.984Z,10.10
2019-03-29T11:45:06.522Z,10.77
2019-03-29T11:47:37.365Z,13.43
2019-03-29T11:50:08.700Z,11.10
2019-03-29T11:52:39.800Z,13.70
2019-03-29T11:55:10.608Z,10.80
2019-03-29T11:57:41.494Z,10.93
2019-03-29T12:00:13.841Z,11.40
2019-03-29T12:02:44.725Z,11.43
2019-03-29T12:05:15.623Z,10.20
2019-03-29T12:07:46.361Z,9.80
2019-03-29T12:10:17.538Z,9.20
2019-03-29T12:12:48.304Z,9.63
2019-03-29T12:15:19.189Z,9.20
2019-03-29T12:17:50.033Z,9.70
2019-03-29T12:20:21.088Z,9.03
2019-03-29T12:22:51.853Z,10.60
2019-03-29T12:25:22.571Z,8.37
2019-03-29T12:27:53.336Z,8.43
2019-03-29T12:30:31.843Z,10.37
2019-03-29T12:32:57.057Z,10.37
2019-03-29T12:35:27.788Z,10.43
2019-03-29T12:37:58.619Z,10.20
2019-03-29T12:40:30.050Z,11.53
2019-03-29T12:43:01.508Z,11.33
2019-03-29T12:45:32.735Z,10.70
2019-03-29T12:48:03.565Z,11.07
2019-03-29T12:50:34.318Z,10.30
2019-03-29T12:53:05.150Z,11.10
2019-03-29T12:55:36.187Z,11.10
2019-03-29T12:58:07.153Z,10.70
2019-03-29T13:00:38.077Z,10.73
2019-03-29T13:03:09.225Z,12.70
2019-03-29T13:05:39.997Z,12.57
2019-03-29T13:08:10.813Z,10.47
2019-03-29T13:10:42.695Z,11.23
2019-03-29T13:13:13.935Z,16.33
2019-03-29T13:15:45.038Z,13.17
2019-03-29T13:18:15.765Z,16.97
2019-03-29T13:20:46.571Z,15.83
2019-03-29T13:23:17.310Z,13.37
2019-03-29T13:25:48.170Z,10.70
2019-03-29T13:28:18.945Z,11.97
2019-03-29T13:30:49.705Z,13.03
2019-03-29T13:33:20.895Z,10.80
2019-03-29T13:35:51.882Z,14.97
2019-03-29T13:38:22.675Z,14.70
2019-03-29T13:40:53.702Z,14.57
2019-03-29T13:43:24.452Z,14.47
2019-03-29T13:45:55.319Z,11.13
2019-03-29T13:48:26.050Z,14.30
2019-03-29T13:50:59.489Z,14.03
2019-03-29T13:53:29.355Z,13.60
2019-03-29T13:56:00.203Z,12.80
2019-03-29T13:58:31.040Z,12.27
2019-03-29T14:01:03.262Z,19.20
2019-03-29T14:03:43.033Z,13.37
2019-03-29T14:06:18.209Z,13.10
2019-03-29T14:08:50.603Z,16.70
2019-03-29T14:11:25.650Z,13.13
2019-03-29T14:13:56.744Z,13.33
2019-03-29T14:16:33.320Z,15.73
2019-03-29T14:19:06.473Z,16.00
2019-03-29T14:21:37.228Z,20.17
2019-03-29T14:24:08.046Z,15.13
2019-03-29T14:26:38.820Z,15.03
2019-03-29T14:29:09.757Z,16.03
2019-03-29T14:31:40.663Z,13.07
2019-03-29T14:34:11.449Z,20.03
2019-03-29T14:36:42.232Z,16.20
2019-03-29T14:39:12.988Z,13.30
2019-03-29T14:41:43.827Z,11.67
2019-03-29T14:44:14.594Z,13.10
2019-03-29T14:46:45.463Z,14.70
2019-03-29T14:49:16.175Z,13.33
2019-03-29T14:51:47.031Z,14.43
2019-03-29T14:54:17.836Z,14.80
2019-03-29T14:56:48.651Z,15.60
2019-03-29T14:59:19.355Z,16.63
2019-03-29T15:01:50.155Z,14.57
2019-03-29T15:04:21.399Z,14.53
2019-03-29T15:06:52.251Z,15.53
2019-03-29T15:09:23.400Z,15.70
2019-03-29T15:11:54.149Z,16.13
2019-03-29T15:14:25.481Z,14.93
2019-03-29T15:16:56.260Z,13.77
2019-03-29T15:19:27.097Z,17.87
2019-03-29T15:21:57.870Z,15.80
2019-03-29T15:24:28.705Z,14.97
2019-03-29T15:26:59.449Z,13.80
2019-03-29T15:29:30.209Z,15.27
2019-03-29T15:32:01.036Z,12.87
2019-03-29T15:34:31.774Z,15.20
2019-03-29T15:37:02.819Z,20.10
2019-03-29T15:39:33.553Z,14.83
2019-03-29T15:42:04.326Z,11.70
2019-03-29T15:44:35.061Z,11.37
2019-03-29T15:47:05.968Z,15.03
2019-03-29T15:49:37.312Z,21.40
2019-03-29T15:52:08.802Z,18.83
2019-03-29T15:54:39.522Z,16.50
2019-03-29T15:57:10.354Z,16.80
2019-03-29T15:59:41.923Z,14.30
2019-03-29T16:02:13.604Z,15.00
2019-03-29T16:04:44.347Z,12.40
2019-03-29T16:07:15.770Z,18.10
2019-03-29T16:09:46.575Z,15.77
2019-03-29T16:12:18.191Z,14.57
2019-03-29T16:14:48.980Z,13.83
2019-03-29T16:17:20.465Z,18.80
2019-03-29T16:19:51.298Z,13.47
2019-03-29T16:22:23.125Z,15.40
2019-03-29T16:24:54.750Z,13.73
2019-03-29T16:27:25.670Z,14.70
2019-03-29T16:29:57.036Z,13.07
2019-03-29T16:32:27.830Z,18.10
2019-03-29T16:34:58.568Z,15.93
2019-03-29T16:37:29.317Z,14.40
2019-03-29T16:40:00.043Z,14.57
2019-03-29T16:42:31.547Z,14.60
2019-03-29T16:45:02.289Z,13.73
2019-03-29T16:47:33.877Z,14.90
2019-03-29T16:50:05.326Z,14.97
2019-03-29T16:52:36.283Z,15.77
2019-03-29T16:55:13.550Z,16.07
2019-03-29T16:57:39.979Z,14.30
2019-03-29T17:00:12.588Z,14.60
2019-03-29T17:02:43.756Z,18.23
2019-03-29T17:05:14.778Z,14.00
2019-03-29T17:07:45.761Z,15.03
2019-03-29T17:10:17.589Z,15.27
2019-03-29T17:12:48.428Z,16.73
2019-03-29T17:15:19.263Z,13.33
2019-03-29T17:17:49.994Z,14.97
2019-03-29T17:20:20.805Z,18.13
2019-03-29T17:22:51.713Z,14.77
2019-03-29T17:25:22.542Z,18.13
2019-03-29T17:27:53.354Z,15.83
2019-03-29T17:30:41.570Z,14.40
2019-03-29T17:33:12.747Z,14.90
2019-03-29T17:35:43.549Z,16.67
2019-03-29T17:38:14.366Z,17.90
2019-03-29T17:40:45.088Z,14.60
2019-03-29T17:43:16.136Z,16.20
2019-03-29T17:45:47.234Z,15.73
2019-03-29T17:48:17.993Z,16.63
2019-03-29T17:50:48.850Z,20.50
2019-03-29T17:53:20.284Z,16.23
2019-03-29T17:55:51.028Z,17.43
2019-03-29T17:58:21.752Z,17.93
2019-03-29T18:00:52.573Z,19.43
2019-03-29T18:03:23.281Z,20.37
2019-03-29T18:05:54.056Z,19.73
2019-03-29T18:08:24.775Z,14.37
2019-03-29T18:10:55.742Z,19.47
2019-03-29T18:13:26.463Z,15.47
2019-03-29T18:15:57.363Z,17.73
2019-03-29T18:18:28.106Z,14.30
2019-03-29T18:20:59.022Z,18.10
2019-03-29T18:23:30.123Z,14.50
2019-03-29T18:26:01.095Z,16.17
2019-03-29T18:28:32.182Z,18.30
2019-03-29T18:31:03.011Z,17.37
2019-03-29T18:33:33.965Z,20.27
2019-03-29T18:36:06.182Z,21.20
2019-03-29T18:38:38.747Z,14.60
2019-03-29T18:41:09.614Z,16.80
2019-03-29T18:43:40.339Z,18.30
2019-03-29T18:46:11.117Z,18.90
2019-03-29T18:48:41.820Z,24.77
2019-03-29T18:51:12.887Z,19.70
2019-03-29T18:53:43.699Z,19.00
2019-03-29T18:56:14.715Z,20.23
2019-03-29T18:58:45.443Z,22.83
2019-03-29T19:01:16.499Z,25.30
2019-03-29T19:03:47.647Z,20.30
2019-03-29T19:06:18.504Z,24.07
2019-03-29T19:08:49.251Z,19.20
2019-03-29T19:11:20.093Z,20.17
2019-03-29T19:13:50.811Z,18.90
2019-03-29T19:16:21.625Z,19.00
2019-03-29T19:18:52.349Z,22.10
2019-03-29T19:21:25.687Z,22.47
2019-03-29T19:23:55.550Z,18.80
2019-03-29T19:26:26.293Z,25.23
2019-03-29T19:28:57.029Z,26.37
2019-03-29T19:31:27.775Z,20.23
2019-03-29T19:33:58.577Z,21.10
2019-03-29T19:36:29.438Z,24.57
2019-03-29T19:39:00.151Z,27.20
2019-03-29T19:41:31.301Z,21.87
2019-03-29T19:44:02.337Z,18.13
2019-03-29T19:46:33.120Z,27.67
2019-03-29T19:49:03.832Z,24.40
2019-03-29T19:51:34.679Z,19.73
2019-03-29T19:54:07.698Z,20.60
2019-03-29T19:56:38.151Z,20.33
2019-03-29T19:59:08.912Z,23.20
2019-03-29T20:01:39.703Z,21.10
2019-03-29T20:04:10.543Z,21.73
2019-03-29T20:06:41.341Z,21.10
2019-03-29T20:09:12.484Z,21.30
2019-03-29T20:11:43.297Z,17.17
2019-03-29T20:14:14.388Z,26.13
2019-03-29T20:16:45.143Z,25.20
2019-03-29T20:19:15.922Z,21.20
2019-03-29T20:21:47.441Z,22.60
2019-03-29T20:24:18.158Z,24.60
2019-03-29T20:26:49.635Z,24.63
2019-03-29T20:29:20.448Z,25.63
2019-03-29T20:31:51.218Z,24.00
2019-03-29T20:34:21.941Z,25.00
2019-03-29T20:36:53.366Z,27.30
2019-03-29T20:39:24.431Z,27.87
2019-03-29T20:41:57.528Z,25.07
2019-03-29T20:44:28.378Z,28.60
2019-03-29T20:46:59.132Z,22.47
2019-03-29T20:49:29.841Z,28.10
2019-03-29T20:52:00.756Z,23.37
2019-03-29T20:54:31.522Z,24.80
2019-03-29T20:57:02.608Z,23.50
2019-03-29T20:59:33.645Z,26.40
2019-03-29T21:02:04.604Z,27.90
2019-03-29T21:04:35.734Z,23.07
2019-03-29T21:07:06.511Z,24.57
2019-03-29T21:09:38.537Z,23.70
2019-03-29T21:12:09.634Z,22.70
2019-03-29T21:14:40.712Z,24.13
2019-03-29T21:17:11.470Z,23.70
2019-03-29T21:19:42.167Z,20.70
2019-03-29T21:22:13.057Z,23.90
2019-03-29T21:24:43.786Z,25.27
2019-03-29T21:27:14.527Z,22.30
2019-03-29T21:29:45.270Z,30.63
2019-03-29T21:32:16.131Z,21.63
2019-03-29T21:34:46.947Z,27.87
2019-03-29T21:37:17.688Z,23.50
2019-03-29T21:39:48.476Z,22.53
2019-03-29T21:42:19.255Z,29.70
2019-03-29T21:44:49.983Z,23.37
2019-03-29T21:47:20.842Z,28.00
2019-03-29T21:49:51.918Z,28.40
2019-03-29T21:52:22.626Z,29.73
2019-03-29T21:54:53.815Z,26.63
2019-03-29T21:57:24.580Z,21.93
2019-03-29T21:59:55.284Z,24.60
2019-03-29T22:02:26.024Z,29.77
2019-03-29T22:04:56.756Z,28.90
2019-03-29T22:07:27.487Z,29.97
2019-03-29T22:09:58.199Z,30.20
2019-03-29T22:12:28.958Z,26.23
2019-03-29T22:14:59.740Z,26.90
2019-03-29T22:17:30.485Z,32.43
2019-03-29T22:20:01.220Z,27.23
2019-03-29T22:22:32.079Z,28.80
2019-03-29T22:25:03.341Z,28.07
2019-03-29T22:27:34.732Z,24.73
2019-03-29T22:30:07.972Z,24.93
2019-03-29T22:32:39.435Z,29.07
2019-03-29T22:35:10.547Z,27.17
2019-03-29T22:37:41.441Z,32.00
2019-03-29T22:40:13.237Z,27.93
2019-03-29T22:42:44.106Z,29.10
2019-03-29T22:45:15.016Z,25.87
2019-03-29T22:47:45.765Z,29.87
2019-03-29T22:50:17.309Z,27.70
2019-03-29T22:52:48.148Z,27.47
2019-03-29T22:55:19.296Z,25.20
2019-03-29T22:57:50.087Z,31.00
2019-03-29T23:00:31.897Z,25.80
2019-03-29T23:03:02.738Z,27.53
2019-03-29T23:05:33.567Z,24.57
2019-03-29T23:08:04.468Z,29.30
2019-03-29T23:10:35.180Z,36.50
2019-03-29T23:13:06.075Z,25.83
2019-03-29T23:15:36.886Z,39.83
2019-03-29T23:18:08.407Z,25.20
2019-03-29T23:20:39.227Z,34.00
2019-03-29T23:23:09.973Z,28.00
2019-03-29T23:25:41.217Z,31.23
2019-03-29T23:28:12.146Z,29.10
2019-03-29T23:30:42.836Z,41.33
2019-03-29T23:33:13.590Z,29.73
2019-03-29T23:35:44.350Z,34.63
2019-03-29T23:38:15.171Z,29.07
2019-03-29T23:40:45.874Z,36.27
2019-03-29T23:43:16.622Z,31.53
2019-03-29T23:45:47.421Z,29.20
2019-03-29T23:48:18.422Z,33.03
2019-03-29T23:50:49.146Z,36.53
2019-03-29T23:53:19.931Z,33.97
2019-03-29T23:55:50.657Z,38.97
2019-03-29T23:58:21.564Z,41.23
